createdAt,value
2023-05-08T00:00:42.208Z,49.39
2023-05-08T00:01:47.631Z,49.64
2023-05-08T00:03:11.315Z,49.74
2023-05-08T00:04:34.733Z,49.56
2023-05-08T00:05:58.089Z,49.51
2023-05-08T00:07:21.337Z,49.88
2023-05-08T00:08:44.204Z,49.87
2023-05-08T00:10:09.792Z,49.75
2023-05-08T00:11:32.214Z,50.02
2023-05-08T00:12:55.622Z,49.85
2023-05-08T00:14:18.919Z,49.83
2023-05-08T00:15:41.195Z,49.97
2023-05-08T00:17:04.555Z,50.28
2023-05-08T00:18:29.126Z,49.98
2023-05-08T00:19:52.112Z,50.48
2023-05-08T00:21:15.397Z,50.36
2023-05-08T00:22:38.864Z,50.45
2023-05-08T00:24:02.051Z,50.42
2023-05-08T00:25:24.364Z,50.47
2023-05-08T00:26:47.690Z,50.11
2023-05-08T00:28:10.081Z,50.01
2023-05-08T00:29:33.560Z,49.96
2023-05-08T00:30:56.416Z,49.70
2023-05-08T00:32:19.765Z,49.81
2023-05-08T00:33:43.489Z,49.78
2023-05-08T00:35:06.960Z,49.91
2023-05-08T00:36:30.683Z,49.82
2023-05-08T00:37:53.017Z,49.80
2023-05-08T00:39:16.567Z,49.88
2023-05-08T00:40:40.039Z,49.50
2023-05-08T00:42:02.411Z,49.68
2023-05-08T00:43:28.136Z,49.92
2023-05-08T00:44:51.361Z,50.11
2023-05-08T00:46:15.226Z,50.39
2023-05-08T00:47:37.778Z,50.24
2023-05-08T00:49:02.753Z,50.24
2023-05-08T00:50:25.744Z,50.57
2023-05-08T00:51:53.426Z,50.74
2023-05-08T00:53:16.563Z,51.01
2023-05-08T00:54:40.915Z,50.84
2023-05-08T00:56:04.725Z,51.06
2023-05-08T00:57:27.197Z,50.77
2023-05-08T00:58:51.337Z,51.24
2023-05-08T01:00:17.607Z,51.26
2023-05-08T01:01:41.650Z,51.04
2023-05-08T01:03:06.244Z,51.51
2023-05-08T01:04:33.053Z,51.51
2023-05-08T01:05:55.277Z,51.94
2023-05-08T01:07:19.367Z,51.80
2023-05-08T01:08:44.457Z,52.13
2023-05-08T01:10:08.407Z,52.51
2023-05-08T01:11:38.557Z,52.24
2023-05-08T01:13:16.565Z,52.38
2023-05-08T01:14:52.578Z,52.46
2023-05-08T01:16:17.915Z,52.54
2023-05-08T01:17:53.001Z,52.30
2023-05-08T01:19:41.223Z,52.01
2023-05-08T01:21:10.616Z,52.11
2023-05-08T01:23:01.871Z,52.20
2023-05-08T01:24:32.697Z,52.10
2023-05-08T01:26:05.839Z,52.00
2023-05-08T01:27:33.635Z,51.90
2023-05-08T01:29:15.478Z,51.83
2023-05-08T01:30:42.905Z,51.98
2023-05-08T01:32:21.462Z,52.23
2023-05-08T01:33:30.581Z,52.89
2023-05-08T01:34:37.043Z,52.92
2023-05-08T01:36:08.497Z,52.87
2023-05-08T01:37:16.043Z,53.05
2023-05-08T01:38:49.029Z,53.28
2023-05-08T01:39:58.839Z,53.24
2023-05-08T01:41:28.415Z,53.65
2023-05-08T01:42:39.536Z,53.18
2023-05-08T01:44:13.442Z,53.54
2023-05-08T01:45:22.743Z,53.52
2023-05-08T01:46:29.586Z,53.54
2023-05-08T01:48:01.235Z,53.65
2023-05-08T01:49:09.362Z,53.40
2023-05-08T01:50:36.292Z,53.69
2023-05-08T01:51:46.001Z,53.99
2023-05-08T01:53:14.801Z,53.54
2023-05-08T01:54:22.724Z,53.50
2023-05-08T01:55:30.047Z,53.83
2023-05-08T01:56:56.546Z,53.73
2023-05-08T01:57:59.915Z,53.94
2023-05-08T01:59:24.866Z,53.67
2023-05-08T02:00:28.674Z,53.90
2023-05-08T02:01:34.653Z,54.01
2023-05-08T02:02:44.828Z,53.76
2023-05-08T02:03:50.583Z,53.56
2023-05-08T02:04:55.993Z,53.21
2023-05-08T02:06:01.936Z,52.97
2023-05-08T02:07:05.893Z,53.58
2023-05-08T02:08:12.903Z,53.21
2023-05-08T02:09:16.946Z,53.30
2023-05-08T02:10:22.283Z,53.38
2023-05-08T02:11:26.204Z,53.36
2023-05-08T02:12:30.948Z,53.67
2023-05-08T02:13:35.894Z,53.47
2023-05-08T02:14:41.348Z,53.37
2023-05-08T02:15:44.072Z,53.65
2023-05-08T02:16:49.892Z,53.50
2023-05-08T02:17:55.606Z,53.39
2023-05-08T02:19:03.164Z,53.68
2023-05-08T02:20:07.830Z,53.94
2023-05-08T02:21:13.923Z,53.54
2023-05-08T02:22:18.942Z,53.96
2023-05-08T02:23:24.782Z,53.49
2023-05-08T02:24:28.072Z,53.54
2023-05-08T02:25:32.399Z,53.65
2023-05-08T02:26:39.783Z,53.89
2023-05-08T02:27:45.735Z,53.94
2023-05-08T02:28:49.904Z,53.84
2023-05-08T02:29:55.788Z,54.02
2023-05-08T02:30:59.501Z,54.00
2023-05-08T02:32:05.084Z,54.38
2023-05-08T02:33:10.770Z,54.15
2023-05-08T02:34:16.822Z,54.65
2023-05-08T02:35:20.642Z,54.55
2023-05-08T02:36:25.033Z,54.66
2023-05-08T02:37:28.706Z,55.00
2023-05-08T02:38:33.917Z,55.02
2023-05-08T02:39:38.465Z,54.71
2023-05-08T02:40:47.484Z,55.03
2023-05-08T02:41:50.324Z,55.23
2023-05-08T02:42:53.926Z,55.16
2023-05-08T02:43:57.155Z,54.83
2023-05-08T02:45:00.702Z,55.08
2023-05-08T02:46:11.079Z,55.05
2023-05-08T02:47:22.974Z,54.95
2023-05-08T02:48:33.874Z,55.18
2023-05-08T02:49:47.632Z,54.95
2023-05-08T02:50:59.444Z,55.08
2023-05-08T02:52:09.286Z,55.01
2023-05-08T02:53:20.900Z,55.27
2023-05-08T02:54:33.260Z,55.28
2023-05-08T02:55:42.992Z,54.90
2023-05-08T02:56:57.130Z,55.15
2023-05-08T02:58:08.317Z,55.61
2023-05-08T02:59:18.186Z,55.30
2023-05-08T03:00:27.930Z,55.67
2023-05-08T03:01:45.710Z,55.94
2023-05-08T03:02:59.564Z,55.56
2023-05-08T03:04:11.419Z,55.99
2023-05-08T03:05:24.702Z,55.93
2023-05-08T03:06:34.209Z,56.23
2023-05-08T03:07:41.940Z,56.22
2023-05-08T03:08:47.368Z,55.85
2023-05-08T03:09:56.655Z,56.46
2023-05-08T03:11:03.161Z,56.57
2023-05-08T03:12:13.468Z,56.61
2023-05-08T03:13:19.304Z,56.57
2023-05-08T03:14:26.604Z,56.92
2023-05-08T03:15:34.722Z,56.79
2023-05-08T03:16:39.510Z,57.25
2023-05-08T03:17:45.259Z,57.17
2023-05-08T03:18:53.570Z,57.68
2023-05-08T03:20:00.787Z,57.66
2023-05-08T03:21:08.579Z,58.12
2023-05-08T03:22:11.763Z,58.34
2023-05-08T03:23:18.181Z,58.72
2023-05-08T03:24:24.920Z,58.74
2023-05-08T03:25:29.913Z,58.99
2023-05-08T03:26:33.001Z,59.59
2023-05-08T03:27:38.081Z,59.71
2023-05-08T03:28:40.820Z,59.96
2023-05-08T03:29:47.429Z,59.88
2023-05-08T03:30:51.692Z,60.21
2023-05-08T03:31:58.266Z,60.19
2023-05-08T03:33:03.707Z,60.69
2023-05-08T03:34:09.666Z,60.57
2023-05-08T03:35:12.289Z,60.83
2023-05-08T03:36:17.743Z,60.82
2023-05-08T03:37:20.309Z,60.88
2023-05-08T03:38:24.121Z,60.85
2023-05-08T03:39:27.030Z,61.34
2023-05-08T03:40:30.809Z,61.43
2023-05-08T03:41:33.742Z,61.52
2023-05-08T03:42:38.670Z,61.26
2023-05-08T03:43:41.957Z,61.35
2023-05-08T03:44:45.317Z,61.21
2023-05-08T03:45:48.291Z,61.01
2023-05-08T03:46:53.965Z,61.16
2023-05-08T03:47:57.203Z,60.92
2023-05-08T03:49:04.093Z,60.96
2023-05-08T03:50:08.861Z,60.66
2023-05-08T03:51:13.708Z,60.67
2023-05-08T03:52:17.582Z,60.89
2023-05-08T03:53:20.976Z,60.67
2023-05-08T03:54:25.601Z,60.42
2023-05-08T03:55:29.016Z,60.31
2023-05-08T03:56:31.501Z,60.45
2023-05-08T03:57:41.069Z,59.99
2023-05-08T03:58:48.893Z,59.97
2023-05-08T04:00:02.021Z,59.86
2023-05-08T04:01:12.372Z,60.01
2023-05-08T04:02:26.971Z,59.84
2023-05-08T04:03:42.962Z,59.65
2023-05-08T04:04:51.392Z,59.79
2023-05-08T04:06:01.312Z,59.89
2023-05-08T04:07:09.616Z,60.11
2023-05-08T04:08:20.123Z,60.18
2023-05-08T04:09:29.768Z,60.05
2023-05-08T04:10:37.851Z,60.31
2023-05-08T04:11:45.988Z,59.97
2023-05-08T04:13:04.728Z,60.46
2023-05-08T04:14:12.543Z,60.65
2023-05-08T04:15:20.713Z,60.53
2023-05-08T04:16:28.478Z,60.79
2023-05-08T04:17:38.901Z,60.72
2023-05-08T04:18:46.976Z,60.83
2023-05-08T04:19:57.467Z,60.56
2023-05-08T04:21:02.130Z,60.72
2023-05-08T04:22:08.285Z,60.29
2023-05-08T04:23:17.441Z,60.30
2023-05-08T04:24:22.826Z,60.10
2023-05-08T04:25:26.323Z,59.87
2023-05-08T04:26:31.150Z,59.95
2023-05-08T04:27:35.588Z,60.08
2023-05-08T04:28:39.554Z,59.96
2023-05-08T04:29:42.846Z,60.18
2023-05-08T04:30:46.643Z,60.27
2023-05-08T04:31:51.241Z,60.45
2023-05-08T04:32:54.923Z,60.41
2023-05-08T04:33:58.643Z,60.20
2023-05-08T04:35:01.593Z,60.61
2023-05-08T04:36:05.254Z,60.85
2023-05-08T04:37:08.246Z,61.12
2023-05-08T04:38:11.699Z,61.25
2023-05-08T04:39:16.740Z,61.28
2023-05-08T04:40:19.095Z,61.43
2023-05-08T04:41:22.802Z,61.43
2023-05-08T04:42:26.375Z,61.48
2023-05-08T04:43:29.727Z,61.62
2023-05-08T04:44:32.346Z,61.85
2023-05-08T04:45:36.258Z,61.60
2023-05-08T04:46:38.680Z,61.66
2023-05-08T04:47:42.408Z,61.58
2023-05-08T04:48:44.831Z,61.25
2023-05-08T04:49:48.552Z,61.10
2023-05-08T04:50:51.184Z,61.03
2023-05-08T04:51:54.578Z,60.81
2023-05-08T04:52:57.416Z,60.82
2023-05-08T04:54:00.788Z,60.78
2023-05-08T04:55:04.788Z,60.48
2023-05-08T04:56:08.458Z,60.47
2023-05-08T04:57:11.085Z,60.23
2023-05-08T04:58:14.489Z,59.99
2023-05-08T04:59:16.845Z,60.26
2023-05-08T05:00:20.959Z,60.08
2023-05-08T05:01:24.308Z,59.72
2023-05-08T05:02:27.956Z,59.80
2023-05-08T05:03:30.498Z,60.02
2023-05-08T05:04:33.879Z,59.52
2023-05-08T05:05:38.693Z,59.62
2023-05-08T05:06:42.502Z,59.14
2023-05-08T05:07:45.297Z,59.25
2023-05-08T05:08:48.812Z,58.55
2023-05-08T05:09:51.225Z,58.63
2023-05-08T05:10:56.081Z,58.85
2023-05-08T05:11:58.473Z,58.90
2023-05-08T05:13:01.917Z,58.38
2023-05-08T05:14:04.881Z,58.50
2023-05-08T05:15:09.496Z,58.23
2023-05-08T05:16:12.180Z,57.92
2023-05-08T05:17:15.712Z,58.31
2023-05-08T05:18:18.636Z,57.82
2023-05-08T05:19:21.957Z,58.06
2023-05-08T05:20:24.769Z,57.80
2023-05-08T05:21:28.257Z,57.41
2023-05-08T05:22:33.219Z,57.66
2023-05-08T05:23:37.053Z,57.12
2023-05-08T05:24:39.954Z,56.90
2023-05-08T05:25:43.551Z,57.04
2023-05-08T05:26:47.308Z,56.80
2023-05-08T05:27:50.591Z,56.88
2023-05-08T05:28:52.976Z,56.18
2023-05-08T05:29:56.801Z,56.29
2023-05-08T05:31:02.103Z,56.45
2023-05-08T05:32:07.264Z,56.31
2023-05-08T05:33:10.653Z,56.15
2023-05-08T05:34:13.413Z,56.46
2023-05-08T05:35:16.945Z,56.39
2023-05-08T05:36:19.734Z,56.32
2023-05-08T05:37:23.252Z,56.48
2023-05-08T05:38:25.769Z,56.15
2023-05-08T05:39:29.311Z,55.88
2023-05-08T05:40:31.848Z,55.83
2023-05-08T05:41:36.469Z,55.65
2023-05-08T05:42:40.402Z,55.56
2023-05-08T05:43:43.874Z,55.81
2023-05-08T05:44:46.391Z,55.62
2023-05-08T05:45:49.699Z,55.88
2023-05-08T05:46:52.500Z,55.90
2023-05-08T05:47:56.148Z,56.04
2023-05-08T05:48:59.360Z,55.52
2023-05-08T05:50:02.857Z,55.70
2023-05-08T05:51:05.323Z,55.24
2023-05-08T05:52:08.717Z,55.48
2023-05-08T05:53:11.777Z,55.22
2023-05-08T05:54:16.073Z,55.49
2023-05-08T05:55:18.484Z,55.15
2023-05-08T05:56:23.336Z,55.61
2023-05-08T05:57:25.727Z,55.33
2023-05-08T05:58:30.471Z,55.34
2023-05-08T05:59:32.922Z,55.32
2023-05-08T06:00:36.219Z,55.16
2023-05-08T06:01:39.458Z,55.55
2023-05-08T06:02:43.987Z,55.13
2023-05-08T06:03:47.061Z,55.26
2023-05-08T06:04:52.317Z,55.13
2023-05-08T06:05:55.855Z,55.15
2023-05-08T06:07:00.540Z,55.11
2023-05-08T06:08:04.014Z,55.16
2023-05-08T06:09:07.548Z,55.35
2023-05-08T06:10:11.802Z,54.70
2023-05-08T06:11:14.181Z,55.19
2023-05-08T06:12:18.281Z,54.64
2023-05-08T06:13:21.093Z,54.75
2023-05-08T06:14:26.229Z,54.65
2023-05-08T06:15:28.663Z,54.66
2023-05-08T06:16:32.391Z,54.55
2023-05-08T06:17:34.803Z,54.52
2023-05-08T06:18:38.451Z,54.35
2023-05-08T06:19:41.204Z,54.46
2023-05-08T06:20:44.626Z,54.38
2023-05-08T06:21:47.044Z,54.35
2023-05-08T06:22:50.514Z,54.24
2023-05-08T06:23:53.273Z,54.36
2023-05-08T06:24:57.364Z,54.46
2023-05-08T06:25:59.941Z,54.25
2023-05-08T06:27:03.228Z,54.30
2023-05-08T06:28:08.200Z,54.18
2023-05-08T06:29:11.689Z,53.78
2023-05-08T06:30:16.118Z,53.40
2023-05-08T06:31:19.591Z,52.68
2023-05-08T06:32:22.507Z,52.03
2023-05-08T06:33:27.123Z,51.81
2023-05-08T06:34:29.703Z,51.23
2023-05-08T06:35:33.175Z,50.90
2023-05-08T06:36:36.511Z,50.51
2023-05-08T06:37:39.857Z,50.07
2023-05-08T06:38:42.470Z,49.60
2023-05-08T06:39:45.828Z,49.16
2023-05-08T06:40:50.582Z,48.45
2023-05-08T06:41:53.976Z,48.86
2023-05-08T06:42:56.377Z,48.65
2023-05-08T06:43:59.921Z,48.64
2023-05-08T06:45:02.544Z,48.22
2023-05-08T06:46:07.296Z,48.63
2023-05-08T06:47:09.777Z,48.01
2023-05-08T06:48:13.297Z,48.06
2023-05-08T06:49:16.036Z,47.97
2023-05-08T06:50:19.433Z,47.48
2023-05-08T06:51:23.398Z,47.71
2023-05-08T06:52:26.945Z,47.47
2023-05-08T06:53:29.402Z,46.96
2023-05-08T06:54:32.854Z,46.90
2023-05-08T06:55:36.562Z,47.08
2023-05-08T06:56:38.962Z,46.97
2023-05-08T06:57:42.822Z,47.39
2023-05-08T06:58:53.716Z,46.83
2023-05-08T07:00:09.876Z,46.65
2023-05-08T07:01:16.024Z,46.80
2023-05-08T07:02:20.423Z,46.23
2023-05-08T07:03:22.926Z,46.32
2023-05-08T07:04:27.013Z,46.25
2023-05-08T07:05:29.451Z,45.95
2023-05-08T07:06:33.085Z,45.91
2023-05-08T07:07:35.699Z,45.99
2023-05-08T07:08:39.346Z,46.15
2023-05-08T07:09:42.224Z,46.14
2023-05-08T07:10:45.739Z,46.31
2023-05-08T07:11:48.421Z,46.15
2023-05-08T07:12:52.502Z,45.87
2023-05-08T07:13:57.975Z,45.98
2023-05-08T07:15:07.846Z,45.11
2023-05-08T07:16:19.267Z,45.20
2023-05-08T07:17:22.018Z,45.38
2023-05-08T07:18:28.324Z,45.77
2023-05-08T07:19:30.829Z,45.64
2023-05-08T07:20:34.122Z,45.30
2023-05-08T07:21:38.861Z,46.05
2023-05-08T07:22:41.608Z,45.99
2023-05-08T07:23:44.963Z,46.15
2023-05-08T07:24:47.721Z,45.35
2023-05-08T07:25:51.079Z,45.27
2023-05-08T07:26:53.710Z,45.05
2023-05-08T07:27:58.708Z,45.32
2023-05-08T07:29:03.110Z,44.66
2023-05-08T07:30:07.425Z,44.64
2023-05-08T07:31:09.909Z,44.45
2023-05-08T07:32:15.475Z,44.39
2023-05-08T07:33:18.571Z,44.08
2023-05-08T07:34:22.048Z,43.66
2023-05-08T07:35:25.515Z,43.34
2023-05-08T07:36:28.422Z,43.46
2023-05-08T07:37:31.762Z,43.06
2023-05-08T07:38:35.122Z,43.00
2023-05-08T07:39:37.948Z,42.44
2023-05-08T07:40:41.301Z,42.25
2023-05-08T07:41:47.152Z,41.47
2023-05-08T07:42:51.024Z,41.63
2023-05-08T07:43:54.554Z,41.24
2023-05-08T07:44:57.040Z,40.94
2023-05-08T07:46:00.688Z,40.47
2023-05-08T07:47:03.838Z,40.57
2023-05-08T07:48:09.011Z,40.48
2023-05-08T07:49:11.460Z,40.48
2023-05-08T07:50:15.236Z,40.43
2023-05-08T07:51:17.642Z,41.08
2023-05-08T07:52:21.046Z,41.42
2023-05-08T07:53:23.412Z,41.52
2023-05-08T07:54:27.689Z,41.54
2023-05-08T07:55:31.992Z,41.98
2023-05-08T07:56:34.432Z,42.10
2023-05-08T07:57:39.109Z,41.92
2023-05-08T07:58:43.092Z,42.38
2023-05-08T07:59:46.860Z,42.00
2023-05-08T08:00:50.417Z,42.75
2023-05-08T08:01:52.856Z,42.54
2023-05-08T08:02:58.620Z,42.23
2023-05-08T08:04:03.562Z,42.19
2023-05-08T08:05:07.113Z,42.03
2023-05-08T08:06:10.541Z,41.73
2023-05-08T08:07:13.655Z,42.04
2023-05-08T08:08:17.019Z,42.10
2023-05-08T08:09:19.381Z,42.18
2023-05-08T08:10:22.918Z,41.65
2023-05-08T08:11:26.862Z,41.58
2023-05-08T08:12:29.396Z,41.13
2023-05-08T08:13:33.019Z,41.56
2023-05-08T08:14:35.619Z,41.54
2023-05-08T08:15:38.958Z,41.36
2023-05-08T08:16:42.839Z,41.33
2023-05-08T08:17:45.362Z,41.32
2023-05-08T08:18:48.920Z,40.97
2023-05-08T08:19:53.523Z,40.97
2023-05-08T08:20:56.962Z,40.94
2023-05-08T08:21:59.411Z,40.64
2023-05-08T08:23:02.875Z,40.47
2023-05-08T08:24:05.889Z,39.75
2023-05-08T08:25:10.221Z,39.76
2023-05-08T08:26:13.665Z,39.46
2023-05-08T08:27:16.179Z,39.00
2023-05-08T08:28:19.517Z,39.43
2023-05-08T08:29:21.990Z,39.73
2023-05-08T08:30:25.555Z,39.26
2023-05-08T08:31:28.037Z,39.11
2023-05-08T08:32:31.600Z,38.93
2023-05-08T08:33:34.105Z,38.63
2023-05-08T08:34:37.579Z,38.30
2023-05-08T08:35:41.350Z,38.36
2023-05-08T08:36:44.714Z,37.92
2023-05-08T08:37:48.047Z,37.86
2023-05-08T08:38:51.462Z,38.06
2023-05-08T08:39:54.538Z,38.48
2023-05-08T08:40:58.564Z,38.42
2023-05-08T08:42:01.537Z,37.85
2023-05-08T08:43:04.863Z,38.48
2023-05-08T08:44:07.539Z,38.35
2023-05-08T08:45:12.331Z,38.13
2023-05-08T08:46:16.029Z,37.92
2023-05-08T08:47:24.551Z,37.59
2023-05-08T08:48:28.968Z,37.82
2023-05-08T08:49:35.731Z,37.55
2023-05-08T08:50:48.728Z,37.21
2023-05-08T08:51:57.542Z,36.95
2023-05-08T08:53:07.332Z,37.21
2023-05-08T08:54:12.930Z,37.48
2023-05-08T08:55:19.307Z,37.11
2023-05-08T08:56:23.871Z,36.18
2023-05-08T08:57:29.868Z,35.98
2023-05-08T08:58:39.215Z,35.38
2023-05-08T08:59:43.398Z,35.77
2023-05-08T09:00:48.786Z,35.27
2023-05-08T09:01:56.720Z,34.29
2023-05-08T09:03:01.481Z,34.27
2023-05-08T09:04:04.321Z,34.26
2023-05-08T09:05:09.148Z,34.36
2023-05-08T09:06:14.575Z,34.60
2023-05-08T09:07:19.150Z,34.60
2023-05-08T09:08:22.924Z,33.64
2023-05-08T09:09:26.092Z,34.11
2023-05-08T09:10:29.729Z,33.56
2023-05-08T09:11:32.308Z,33.31
2023-05-08T09:12:35.753Z,33.67
2023-05-08T09:13:39.962Z,33.23
2023-05-08T09:14:42.573Z,33.04
2023-05-08T09:15:45.993Z,33.24
2023-05-08T09:16:48.583Z,32.99
2023-05-08T09:17:52.067Z,33.73
2023-05-08T09:18:54.637Z,33.08
2023-05-08T09:19:58.221Z,33.28
2023-05-08T09:21:02.758Z,33.37
2023-05-08T09:22:09.903Z,34.19
2023-05-08T09:23:14.796Z,34.58
2023-05-08T09:24:18.239Z,34.91
2023-05-08T09:25:21.900Z,34.52
2023-05-08T09:26:28.828Z,35.16
2023-05-08T09:27:33.054Z,34.95
2023-05-08T09:28:36.656Z,34.80
2023-05-08T09:29:39.188Z,34.99
2023-05-08T09:30:51.353Z,35.49
2023-05-08T09:31:54.975Z,34.74
2023-05-08T09:33:03.778Z,35.60
2023-05-08T09:34:07.220Z,35.32
2023-05-08T09:35:12.466Z,36.18
2023-05-08T09:36:28.727Z,35.97
2023-05-08T09:37:34.042Z,36.30
2023-05-08T09:38:37.938Z,36.11
2023-05-08T09:39:43.329Z,35.82
2023-05-08T09:40:45.895Z,35.36
2023-05-08T09:41:59.117Z,35.22
2023-05-08T09:43:13.973Z,35.74
2023-05-08T09:44:17.841Z,35.51
2023-05-08T09:45:29.393Z,36.63
2023-05-08T09:46:34.222Z,36.25
2023-05-08T09:47:39.689Z,37.11
2023-05-08T09:48:43.121Z,37.10
2023-05-08T09:49:59.772Z,36.69
2023-05-08T09:51:07.757Z,37.27
2023-05-08T09:52:17.078Z,37.11
2023-05-08T09:53:31.942Z,37.24
2023-05-08T09:54:35.620Z,36.95
2023-05-08T09:55:49.071Z,36.71
2023-05-08T09:56:51.485Z,37.44
2023-05-08T09:57:56.696Z,37.19
2023-05-08T09:58:59.238Z,37.38
2023-05-08T10:00:06.059Z,37.59
2023-05-08T10:01:30.882Z,37.58
2023-05-08T10:02:35.008Z,37.33
2023-05-08T10:03:47.815Z,36.72
2023-05-08T10:04:52.138Z,36.64
2023-05-08T10:05:54.571Z,36.79
2023-05-08T10:06:59.608Z,36.70
2023-05-08T10:08:20.399Z,37.05
2023-05-08T10:09:24.196Z,36.91
2023-05-08T10:10:29.223Z,36.67
2023-05-08T10:11:32.040Z,36.79
2023-05-08T10:12:38.057Z,36.67
2023-05-08T10:13:40.482Z,36.80
2023-05-08T10:14:46.552Z,36.00
2023-05-08T10:15:55.956Z,36.04
2023-05-08T10:17:02.165Z,35.98
2023-05-08T10:18:06.412Z,36.16
2023-05-08T10:19:16.152Z,35.45
2023-05-08T10:20:21.827Z,35.13
2023-05-08T10:21:29.911Z,35.01
2023-05-08T10:22:37.510Z,35.22
2023-05-08T10:23:42.766Z,35.40
2023-05-08T10:24:51.279Z,35.88
2023-05-08T10:26:01.219Z,35.83
2023-05-08T10:27:11.250Z,35.32
2023-05-08T10:28:18.688Z,35.46
2023-05-08T10:29:29.675Z,35.72
2023-05-08T10:30:35.584Z,35.66
2023-05-08T10:31:41.623Z,35.92
2023-05-08T10:32:46.619Z,36.20
2023-05-08T10:33:51.484Z,35.99
2023-05-08T10:34:58.336Z,36.39
2023-05-08T10:36:01.589Z,36.43
2023-05-08T10:37:05.448Z,36.27
2023-05-08T10:38:09.466Z,36.33
2023-05-08T10:39:14.663Z,35.94
2023-05-08T10:40:21.410Z,35.81
2023-05-08T10:41:25.280Z,35.28
2023-05-08T10:42:30.050Z,34.92
2023-05-08T10:43:34.799Z,35.19
2023-05-08T10:44:38.677Z,35.07
2023-05-08T10:45:42.744Z,35.25
2023-05-08T10:46:52.296Z,35.14
2023-05-08T10:48:05.915Z,35.41
2023-05-08T10:49:17.158Z,35.83
2023-05-08T10:50:34.598Z,36.32
2023-05-08T10:51:44.645Z,35.88
2023-05-08T10:52:55.090Z,36.42
2023-05-08T10:54:06.735Z,36.32
2023-05-08T10:55:26.287Z,37.07
2023-05-08T10:56:29.226Z,36.87
2023-05-08T10:57:33.137Z,36.70
2023-05-08T10:58:39.910Z,36.64
2023-05-08T10:59:46.010Z,36.59
2023-05-08T11:01:14.853Z,36.59
2023-05-08T11:02:28.735Z,36.21
2023-05-08T11:03:33.281Z,36.26
2023-05-08T11:04:38.370Z,36.36
2023-05-08T11:05:46.920Z,36.25
2023-05-08T11:06:53.158Z,35.99
2023-05-08T11:07:56.883Z,36.17
2023-05-08T11:09:01.025Z,36.07
2023-05-08T11:10:15.720Z,36.07
2023-05-08T11:11:26.914Z,35.98
2023-05-08T11:12:33.924Z,35.56
2023-05-08T11:13:38.354Z,35.43
2023-05-08T11:14:44.241Z,35.56
2023-05-08T11:15:51.691Z,35.99
2023-05-08T11:17:11.878Z,36.09
2023-05-08T11:18:17.741Z,36.01
2023-05-08T11:19:22.617Z,36.14
2023-05-08T11:20:40.482Z,36.14
2023-05-08T11:22:12.854Z,36.21
2023-05-08T11:23:27.164Z,36.51
2023-05-08T11:24:36.493Z,37.00
2023-05-08T11:25:46.247Z,36.14
2023-05-08T11:26:50.547Z,36.18
2023-05-08T11:28:12.622Z,36.53
2023-05-08T11:29:17.922Z,36.39
2023-05-08T11:30:23.726Z,36.27
2023-05-08T11:31:53.662Z,35.78
2023-05-08T11:33:13.646Z,35.70
2023-05-08T11:34:47.665Z,35.57
2023-05-08T11:35:56.890Z,36.08
2023-05-08T11:37:03.055Z,35.97
2023-05-08T11:38:18.246Z,36.10
2023-05-08T11:39:21.643Z,36.17
2023-05-08T11:40:47.422Z,36.75
2023-05-08T11:41:52.168Z,36.61
2023-05-08T11:42:56.892Z,36.35
2023-05-08T11:44:15.334Z,36.58
2023-05-08T11:45:20.306Z,36.26
2023-05-08T11:46:23.755Z,35.91
2023-05-08T11:47:37.844Z,36.16
2023-05-08T11:48:40.870Z,36.25
2023-05-08T11:49:45.389Z,36.49
2023-05-08T11:50:53.563Z,35.90
2023-05-08T11:52:02.997Z,36.16
2023-05-08T11:53:06.358Z,35.36
2023-05-08T11:54:10.825Z,35.50
2023-05-08T11:55:15.919Z,35.39
2023-05-08T11:56:18.361Z,35.25
2023-05-08T11:57:24.059Z,35.61
2023-05-08T11:58:26.908Z,35.40
2023-05-08T11:59:30.411Z,35.67
2023-05-08T12:00:33.016Z,35.34
2023-05-08T12:01:36.926Z,35.49
2023-05-08T12:02:42.903Z,35.88
2023-05-08T12:03:47.020Z,35.62
2023-05-08T12:04:50.581Z,35.42
2023-05-08T12:05:57.214Z,35.55
2023-05-08T12:07:01.164Z,35.64
2023-05-08T12:08:06.387Z,36.03
2023-05-08T12:09:14.300Z,35.37
2023-05-08T12:10:17.694Z,35.90
2023-05-08T12:11:24.860Z,35.95
2023-05-08T12:12:39.133Z,36.56
2023-05-08T12:13:41.541Z,36.31
2023-05-08T12:14:45.067Z,36.07
2023-05-08T12:15:48.586Z,36.26
2023-05-08T12:16:52.546Z,36.30
2023-05-08T12:18:02.128Z,36.35
2023-05-08T12:19:06.950Z,36.42
2023-05-08T12:20:14.312Z,36.23
2023-05-08T12:21:19.045Z,36.17
2023-05-08T12:22:22.434Z,36.17
2023-05-08T12:23:28.856Z,35.82
2023-05-08T12:24:31.365Z,35.76
2023-05-08T12:25:34.696Z,35.55
2023-05-08T12:26:37.650Z,36.04
2023-05-08T12:27:42.424Z,35.63
2023-05-08T12:28:46.350Z,36.20
2023-05-08T12:29:49.679Z,36.37
2023-05-08T12:30:52.539Z,36.58
2023-05-08T12:31:56.263Z,36.75
2023-05-08T12:32:59.173Z,36.82
2023-05-08T12:34:04.554Z,36.75
2023-05-08T12:35:07.803Z,37.22
2023-05-08T12:36:11.950Z,36.89
2023-05-08T12:37:24.289Z,36.92
2023-05-08T12:38:28.390Z,37.29
2023-05-08T12:39:36.377Z,36.59
2023-05-08T12:40:43.692Z,37.15
2023-05-08T12:41:48.845Z,36.83
2023-05-08T12:42:53.911Z,36.71
2023-05-08T12:43:57.368Z,36.74
2023-05-08T12:45:00.180Z,36.71
2023-05-08T12:46:04.827Z,36.93
2023-05-08T12:47:07.332Z,37.05
2023-05-08T12:48:12.717Z,37.01
2023-05-08T12:49:22.974Z,36.71
2023-05-08T12:50:26.383Z,36.92
2023-05-08T12:51:32.594Z,37.21
2023-05-08T12:52:37.360Z,37.75
2023-05-08T12:53:41.317Z,37.07
2023-05-08T12:54:48.585Z,37.39
2023-05-08T12:55:54.983Z,37.51
2023-05-08T12:56:57.677Z,37.22
2023-05-08T12:58:04.475Z,37.80
2023-05-08T12:59:06.962Z,38.19
2023-05-08T13:00:11.774Z,38.34
2023-05-08T13:01:24.353Z,38.37
2023-05-08T13:02:27.394Z,38.95
2023-05-08T13:03:33.226Z,38.70
2023-05-08T13:04:38.124Z,39.04
2023-05-08T13:05:43.825Z,38.96
2023-05-08T13:06:56.015Z,39.19
2023-05-08T13:08:01.730Z,39.17
2023-05-08T13:09:05.306Z,38.89
2023-05-08T13:10:08.980Z,39.42
2023-05-08T13:11:12.319Z,39.05
2023-05-08T13:12:16.771Z,39.09
2023-05-08T13:13:23.223Z,39.38
2023-05-08T13:14:27.213Z,39.03
2023-05-08T13:15:29.740Z,38.61
2023-05-08T13:16:43.506Z,38.74
2023-05-08T13:17:46.969Z,38.29
2023-05-08T13:18:50.443Z,38.80
2023-05-08T13:19:53.842Z,38.78
2023-05-08T13:20:57.378Z,38.98
2023-05-08T13:21:59.783Z,38.99
2023-05-08T13:23:03.999Z,38.70
2023-05-08T13:24:07.912Z,38.79
2023-05-08T13:25:10.800Z,38.17
2023-05-08T13:26:14.299Z,38.02
2023-05-08T13:27:16.856Z,38.00
2023-05-08T13:28:22.174Z,38.61
2023-05-08T13:29:24.613Z,38.86
2023-05-08T13:30:28.207Z,38.59
2023-05-08T13:31:31.726Z,38.83
2023-05-08T13:32:34.206Z,39.32
2023-05-08T13:33:38.873Z,39.09
2023-05-08T13:34:47.630Z,39.63
2023-05-08T13:35:53.512Z,40.00
2023-05-08T13:36:56.056Z,39.89
2023-05-08T13:37:59.964Z,39.92
2023-05-08T13:39:03.858Z,40.03
2023-05-08T13:40:08.480Z,40.60
2023-05-08T13:41:10.932Z,40.87
2023-05-08T13:42:14.393Z,41.09
2023-05-08T13:43:17.697Z,41.49
2023-05-08T13:44:21.593Z,41.64
2023-05-08T13:45:24.960Z,41.92
2023-05-08T13:46:28.281Z,42.03
2023-05-08T13:47:31.817Z,42.75
2023-05-08T13:48:34.281Z,43.11
2023-05-08T13:49:37.724Z,43.57
2023-05-08T13:50:41.094Z,44.13
2023-05-08T13:51:47.263Z,44.85
2023-05-08T13:52:54.919Z,44.96
2023-05-08T13:53:57.997Z,45.42
2023-05-08T13:55:01.398Z,46.30
2023-05-08T13:56:05.031Z,46.67
2023-05-08T13:57:08.212Z,47.00
2023-05-08T13:58:11.634Z,48.25
2023-05-08T13:59:14.072Z,51.04
2023-05-08T14:00:19.394Z,52.74
2023-05-08T14:01:26.854Z,55.13
2023-05-08T14:02:30.650Z,56.81
2023-05-08T14:03:33.473Z,58.86
2023-05-08T14:04:37.243Z,60.70
2023-05-08T14:05:40.732Z,61.85
2023-05-08T14:06:43.289Z,62.59
2023-05-08T14:07:46.737Z,64.12
2023-05-08T14:08:51.440Z,65.19
2023-05-08T14:09:57.714Z,66.02
2023-05-08T14:11:00.228Z,67.51
2023-05-08T14:12:03.827Z,67.90
2023-05-08T14:13:06.320Z,68.73
2023-05-08T14:14:09.892Z,69.30
2023-05-08T14:15:13.593Z,71.20
2023-05-08T14:16:18.359Z,71.37
2023-05-08T14:17:21.770Z,72.03
2023-05-08T14:18:24.231Z,72.60
2023-05-08T14:19:27.617Z,72.97
2023-05-08T14:20:31.082Z,73.05
2023-05-08T14:21:34.887Z,74.16
2023-05-08T14:22:38.403Z,74.32
2023-05-08T14:23:41.338Z,75.04
2023-05-08T14:24:45.214Z,75.09
2023-05-08T14:25:49.792Z,75.23
2023-05-08T14:26:53.270Z,75.74
2023-05-08T14:27:56.668Z,76.04
2023-05-08T14:28:59.081Z,75.91